Time;durP1;ratioP1;P1;durP2;ratioP2;P2;SDS_P1;SDS_P2;PMS_P1;PMS_P2;Temp;Humidity;BMP_temperature;BMP_pressure;BME280_temperature;BME280_humidity;BME280_pressure;Samples;Min_cycle;Max_cycle;Signal;HPM_P1;HPM_P2
2023/07/30 00:01:14;;;;;;;;;;;17.50;79.20;;;;;;5114303;28;19943;-44
2023/07/30 00:03:40;;;;;;;;;;;17.50;79.30;;;;;;5113841;28;19951;-42
2023/07/30 00:06:05;;;;;;;;;;;17.50;79.30;;;;;;5113991;28;20424;-44
2023/07/30 00:08:31;;;;;;;;;;;17.50;79.30;;;;;;5114216;28;20003;-40
2023/07/30 00:10:57;;;;;;;;;;;17.50;79.40;;;;;;5113878;28;20048;-41
2023/07/30 00:13:23;;;;;;;;;;;17.40;79.40;;;;;;5096023;28;19972;-34
2023/07/30 00:15:49;;;;;;;;;;;17.40;79.40;;;;;;5095742;28;19911;-34
2023/07/30 00:18:14;;;;;;;;;;;17.40;79.40;;;;;;5113815;28;19912;-34
2023/07/30 00:20:40;;;;;;;;;;;17.40;79.40;;;;;;5113781;28;20311;-34
2023/07/30 00:23:06;;;;;;;;;;;17.40;79.40;;;;;;5094987;28;19908;-38
2023/07/30 00:25:31;;;;;;;;;;;17.30;79.30;;;;;;5113749;28;19908;-34
2023/07/30 00:27:57;;;;;;;;;;;17.30;79.40;;;;;;5113670;28;19972;-36
2023/07/30 00:30:22;;;;;;;;;;;17.30;79.40;;;;;;5113403;28;20359;-35
2023/07/30 00:32:48;;;;;;;;;;;17.30;79.40;;;;;;5113555;28;19957;-34
2023/07/30 00:35:13;;;;;;;;;;;17.30;79.40;;;;;;5113371;28;19908;-34
2023/07/30 00:37:39;;;;;;;;;;;17.30;79.40;;;;;;5113668;28;19908;-34
2023/07/30 00:40:04;;;;;;;;;;;17.20;79.40;;;;;;5113393;28;20293;-36
2023/07/30 00:42:30;;;;;;;;;;;17.30;79.50;;;;;;5113272;28;19915;-35
2023/07/30 00:44:55;;;;;;;;;;;17.20;79.40;;;;;;5113521;28;19908;-34
2023/07/30 00:47:21;;;;;;;;;;;17.20;79.50;;;;;;5113279;28;19915;-34
2023/07/30 00:49:47;;;;;;;;;;;17.20;79.40;;;;;;5113347;28;20351;-34
2023/07/30 00:52:14;;;;;;;;;;;17.20;79.50;;;;;;5113201;28;20044;-34
2023/07/30 00:54:40;;;;;;;;;;;17.20;79.50;;;;;;5113079;28;19907;-33
2023/07/30 00:57:06;;;;;;;;;;;17.20;79.50;;;;;;5113082;28;19915;-35
2023/07/30 00:59:32;;;;;;;;;;;17.10;79.50;;;;;;5094847;28;19908;-34
2023/07/30 01:01:58;;;;;;;;;;;17.10;79.50;;;;;;5113389;28;19916;-33
2023/07/30 01:04:24;;;;;;;;;;;17.10;79.60;;;;;;5112901;28;19941;-36
2023/07/30 01:06:50;;;;;;;;;;;17.10;79.60;;;;;;5113226;28;19913;-35
2023/07/30 01:09:15;;;;;;;;;;;17.10;79.60;;;;;;5112749;28;19914;-35
2023/07/30 01:11:41;;;;;;;;;;;17.10;79.60;;;;;;5112766;28;19908;-33
2023/07/30 01:14:07;;;;;;;;;;;17.00;79.50;;;;;;5113127;28;19908;-34
2023/07/30 01:16:33;;;;;;;;;;;17.00;79.60;;;;;;5113002;28;20066;-34
2023/07/30 01:18:59;;;;;;;;;;;17.00;79.50;;;;;;5112913;28;19962;-34
2023/07/30 01:21:24;;;;;;;;;;;17.00;79.60;;;;;;5112859;28;19911;-34
2023/07/30 01:23:50;;;;;;;;;;;17.00;79.60;;;;;;5112733;28;19908;-34
2023/07/30 01:26:24;;;;;;;;;;;17.00;79.60;;;;;;5112661;28;19915;-34
2023/07/30 01:28:52;;;;;;;;;;;17.00;79.60;;;;;;5112988;28;20266;-33
2023/07/30 01:31:17;;;;;;;;;;;16.90;79.50;;;;;;5112798;28;19976;-35
2023/07/30 01:33:46;;;;;;;;;;;16.90;79.60;;;;;;5112632;28;19950;-34
2023/07/30 01:36:13;;;;;;;;;;;16.90;79.60;;;;;;5116047;28;19951;-33
2023/07/30 01:38:39;;;;;;;;;;;16.90;79.60;;;;;;5117103;28;19908;-34
2023/07/30 01:41:05;;;;;;;;;;;16.80;79.60;;;;;;5116902;28;19919;-34
2023/07/30 01:43:30;;;;;;;;;;;16.90;79.70;;;;;;5116833;28;19914;-33
2023/07/30 01:45:55;;;;;;;;;;;16.90;79.70;;;;;;5116889;28;19964;-34
2023/07/30 01:48:21;;;;;;;;;;;16.80;79.60;;;;;;5116729;28;19915;-34
2023/07/30 01:50:49;;;;;;;;;;;16.80;79.70;;;;;;5116693;28;19947;-35
2023/07/30 01:53:15;;;;;;;;;;;16.80;79.70;;;;;;5116504;28;19912;-34
2023/07/30 01:55:43;;;;;;;;;;;16.70;79.60;;;;;;5116806;28;19915;-32
2023/07/30 01:58:09;;;;;;;;;;;16.80;79.70;;;;;;5116636;28;20315;-35
2023/07/30 02:00:34;;;;;;;;;;;16.70;79.70;;;;;;5116365;28;19958;-34
2023/07/30 02:03:00;;;;;;;;;;;16.70;79.70;;;;;;5116328;28;19963;-34
2023/07/30 02:05:25;;;;;;;;;;;16.70;79.70;;;;;;5116237;28;20371;-36
2023/07/30 02:07:53;;;;;;;;;;;16.70;79.80;;;;;;5115958;28;20343;-47
2023/07/30 02:10:18;;;;;;;;;;;16.70;79.80;;;;;;5116272;28;19958;-34
2023/07/30 02:12:43;;;;;;;;;;;16.70;79.80;;;;;;5116363;28;19908;-33
2023/07/30 02:15:09;;;;;;;;;;;16.70;79.80;;;;;;5116277;28;19919;-35
2023/07/30 02:17:34;;;;;;;;;;;16.70;79.80;;;;;;5116362;28;19911;-35
2023/07/30 02:20:00;;;;;;;;;;;16.60;79.70;;;;;;5116216;28;19965;-34
2023/07/30 02:22:25;;;;;;;;;;;16.70;79.80;;;;;;5115920;28;19914;-35
2023/07/30 02:24:51;;;;;;;;;;;16.70;79.80;;;;;;5116074;28;19908;-34
2023/07/30 02:27:16;;;;;;;;;;;16.70;79.80;;;;;;5115806;28;19933;-34
2023/07/30 02:29:42;;;;;;;;;;;16.60;79.70;;;;;;5115962;28;19970;-34
2023/07/30 02:32:08;;;;;;;;;;;16.60;79.80;;;;;;5116151;28;19907;-35
2023/07/30 02:34:33;;;;;;;;;;;16.60;79.80;;;;;;5115982;28;19907;-34
2023/07/30 02:36:59;;;;;;;;;;;16.70;79.80;;;;;;5115994;28;19930;-35
2023/07/30 02:39:24;;;;;;;;;;;16.70;79.70;;;;;;5115765;28;19955;-33
2023/07/30 02:41:50;;;;;;;;;;;16.70;79.70;;;;;;5116179;28;20306;-37
2023/07/30 02:44:15;;;;;;;;;;;16.70;79.60;;;;;;5115675;28;19973;-34
2023/07/30 02:46:40;;;;;;;;;;;16.80;79.60;;;;;;5114943;28;19908;-35
2023/07/30 02:49:06;;;;;;;;;;;16.80;79.60;;;;;;5115623;28;19914;-36
2023/07/30 02:51:31;;;;;;;;;;;16.80;79.50;;;;;;5097295;28;19912;-35
2023/07/30 02:53:58;;;;;;;;;;;16.80;79.50;;;;;;5115784;28;19915;-35
2023/07/30 02:56:23;;;;;;;;;;;16.80;79.50;;;;;;5115722;28;19914;-33
2023/07/30 02:58:49;;;;;;;;;;;16.90;79.40;;;;;;5115565;28;19907;-35
2023/07/30 03:01:14;;;;;;;;;;;16.90;79.40;;;;;;5115354;28;19912;-35
2023/07/30 03:03:40;;;;;;;;;;;16.90;79.40;;;;;;5115062;28;19999;-35
2023/07/30 03:06:05;;;;;;;;;;;16.90;79.40;;;;;;5115258;28;19916;-36
2023/07/30 03:08:31;;;;;;;;;;;16.90;79.30;;;;;;5096865;28;20010;-34
2023/07/30 03:10:59;;;;;;;;;;;16.90;79.40;;;;;;5115410;28;19922;-34
2023/07/30 03:13:25;;;;;;;;;;;16.90;79.50;;;;;;5114896;28;19923;-33
2023/07/30 03:15:50;;;;;;;;;;;16.90;79.40;;;;;;5114991;28;19912;-34
2023/07/30 03:18:16;;;;;;;;;;;16.90;79.50;;;;;;5114985;28;19912;-34
2023/07/30 03:20:41;;;;;;;;;;;16.90;79.50;;;;;;5114975;28;20374;-32
2023/07/30 03:23:07;;;;;;;;;;;16.90;79.50;;;;;;5096682;28;19920;-34
2023/07/30 03:25:32;;;;;;;;;;;16.90;79.50;;;;;;5115018;28;19912;-35
2023/07/30 03:27:58;;;;;;;;;;;16.90;79.40;;;;;;5114828;28;19912;-36
2023/07/30 03:30:23;;;;;;;;;;;17.00;79.50;;;;;;5114663;28;19916;-34
2023/07/30 03:32:49;;;;;;;;;;;17.00;79.50;;;;;;5115041;28;19912;-35
2023/07/30 03:35:14;;;;;;;;;;;17.00;79.50;;;;;;5114600;28;20014;-35
2023/07/30 03:37:40;;;;;;;;;;;17.00;79.50;;;;;;5115038;28;20270;-35
2023/07/30 03:40:06;;;;;;;;;;;17.00;79.50;;;;;;5114688;28;19919;-35
2023/07/30 03:42:31;;;;;;;;;;;17.00;79.50;;;;;;5114662;28;19911;-34
2023/07/30 03:44:57;;;;;;;;;;;17.00;79.50;;;;;;5114616;28;20014;-35
2023/07/30 03:47:22;;;;;;;;;;;17.10;79.50;;;;;;5114507;28;19912;-33
2023/07/30 03:49:47;;;;;;;;;;;17.10;79.50;;;;;;5114468;28;19916;-35
2023/07/30 03:52:13;;;;;;;;;;;17.10;79.50;;;;;;5114569;28;20375;-34
2023/07/30 03:54:38;;;;;;;;;;;17.10;79.50;;;;;;5114720;28;19911;-36
2023/07/30 03:57:04;;;;;;;;;;;17.10;79.70;;;;;;5114475;28;19915;-35
2023/07/30 03:59:29;;;;;;;;;;;17.00;79.60;;;;;;5113666;28;19912;-35
2023/07/30 04:01:55;;;;;;;;;;;17.00;79.70;;;;;;5114462;28;20002;-34
2023/07/30 04:04:20;;;;;;;;;;;17.00;79.80;;;;;;5114213;28;19920;-33
2023/07/30 04:06:46;;;;;;;;;;;17.00;79.80;;;;;;5114068;28;20416;-34
2023/07/30 04:09:11;;;;;;;;;;;17.00;79.80;;;;;;5114094;28;19911;-33
2023/07/30 04:11:37;;;;;;;;;;;17.00;79.80;;;;;;5114263;28;19937;-41
2023/07/30 04:14:04;;;;;;;;;;;17.10;79.80;;;;;;5113941;28;20389;-35
2023/07/30 04:16:30;;;;;;;;;;;17.00;79.80;;;;;;5113896;28;19933;-35
2023/07/30 04:18:55;;;;;;;;;;;17.10;79.80;;;;;;5113959;28;20010;-34
2023/07/30 04:21:21;;;;;;;;;;;17.00;79.80;;;;;;5113990;28;19912;-35
2023/07/30 04:23:47;;;;;;;;;;;17.10;79.90;;;;;;5113640;28;19911;-35
2023/07/30 04:26:13;;;;;;;;;;;17.10;79.90;;;;;;5113881;28;19919;-35
2023/07/30 04:28:38;;;;;;;;;;;17.00;79.90;;;;;;5113515;28;20294;-36
2023/07/30 04:31:04;;;;;;;;;;;17.10;79.90;;;;;;5113633;28;19920;-35
2023/07/30 04:33:29;;;;;;;;;;;17.10;80.00;;;;;;5113563;28;20011;-34
2023/07/30 04:35:55;;;;;;;;;;;17.10;80.00;;;;;;5113805;28;19916;-34
2023/07/30 04:38:20;;;;;;;;;;;17.10;79.90;;;;;;5113893;28;19950;-35
2023/07/30 04:40:46;;;;;;;;;;;17.10;80.20;;;;;;5113617;28;20002;-34
2023/07/30 04:43:11;;;;;;;;;;;17.10;80.00;;;;;;5113546;28;19911;-34
2023/07/30 04:45:37;;;;;;;;;;;17.10;80.10;;;;;;5113558;28;20022;-36
2023/07/30 04:48:02;;;;;;;;;;;17.10;80.80;;;;;;5113280;28;19912;-38
2023/07/30 04:50:28;;;;;;;;;;;17.10;80.00;;;;;;5113034;28;19915;-35
2023/07/30 04:52:53;;;;;;;;;;;17.20;80.10;;;;;;5113199;28;19919;-34
2023/07/30 04:55:19;;;;;;;;;;;17.20;80.00;;;;;;5113317;28;19938;-35
2023/07/30 04:57:44;;;;;;;;;;;17.20;80.60;;;;;;5113477;28;19912;-34
2023/07/30 05:00:10;;;;;;;;;;;17.30;80.00;;;;;;5094850;28;19912;-35
2023/07/30 05:02:36;;;;;;;;;;;17.30;79.90;;;;;;5113098;28;19947;-33
2023/07/30 05:05:01;;;;;;;;;;;17.30;79.90;;;;;;5113009;28;19952;-37
2023/07/30 05:07:27;;;;;;;;;;;17.40;79.90;;;;;;5112973;28;20282;-34
2023/07/30 05:09:52;;;;;;;;;;;17.40;79.90;;;;;;5112622;28;20014;-33
2023/07/30 05:12:18;;;;;;;;;;;17.40;79.90;;;;;;5112495;28;20483;-34
2023/07/30 05:14:43;;;;;;;;;;;17.40;79.90;;;;;;5111753;28;19912;-35
2023/07/30 05:17:09;;;;;;;;;;;17.50;79.90;;;;;;5111728;28;20402;-35
2023/07/30 05:19:34;;;;;;;;;;;17.50;80.00;;;;;;5112961;28;20286;-34
2023/07/30 05:22:01;;;;;;;;;;;17.50;80.00;;;;;;5113126;28;19912;-35
2023/07/30 05:24:27;;;;;;;;;;;17.50;80.00;;;;;;5113293;28;19912;-34
2023/07/30 05:26:52;;;;;;;;;;;17.50;79.90;;;;;;5113095;28;19950;-34
2023/07/30 05:29:18;;;;;;;;;;;17.60;80.10;;;;;;5112885;28;20365;-34
2023/07/30 05:31:43;;;;;;;;;;;17.50;80.00;;;;;;5112782;28;19912;-34
2023/07/30 05:34:09;;;;;;;;;;;17.60;80.00;;;;;;5112714;28;20452;-36
2023/07/30 05:36:34;;;;;;;;;;;17.60;80.10;;;;;;5113039;28;19916;-35
2023/07/30 05:39:00;;;;;;;;;;;17.60;80.20;;;;;;5112999;28;19919;-35
2023/07/30 05:41:25;;;;;;;;;;;17.60;80.20;;;;;;5112658;28;19937;-35
2023/07/30 05:43:51;;;;;;;;;;;17.60;80.10;;;;;;5112799;28;19926;-36
2023/07/30 05:46:16;;;;;;;;;;;17.70;80.20;;;;;;5112471;28;19912;-34
2023/07/30 05:48:41;;;;;;;;;;;17.70;80.10;;;;;;5113076;28;19959;-33
2023/07/30 05:51:07;;;;;;;;;;;17.70;80.10;;;;;;5112601;28;20371;-36
2023/07/30 05:53:32;;;;;;;;;;;17.70;80.20;;;;;;5112556;28;19911;-34
2023/07/30 05:55:58;;;;;;;;;;;17.80;80.20;;;;;;5112493;28;19934;-36
2023/07/30 05:58:23;;;;;;;;;;;17.70;80.10;;;;;;5112621;28;19916;-35
2023/07/30 06:00:49;;;;;;;;;;;17.80;80.20;;;;;;5112683;28;20371;-36
2023/07/30 06:03:14;;;;;;;;;;;17.90;80.10;;;;;;5112428;28;19922;-34
2023/07/30 06:05:40;;;;;;;;;;;17.90;80.00;;;;;;5112194;28;20017;-34
2023/07/30 06:08:06;;;;;;;;;;;17.90;80.00;;;;;;5112682;28;20358;-35
2023/07/30 06:10:33;;;;;;;;;;;18.00;80.00;;;;;;5112364;28;19915;-34
2023/07/30 06:12:59;;;;;;;;;;;18.00;80.00;;;;;;5112332;28;20375;-33
2023/07/30 06:15:24;;;;;;;;;;;18.00;80.00;;;;;;5112299;28;19923;-34
2023/07/30 06:17:50;;;;;;;;;;;18.00;80.00;;;;;;5112280;28;19912;-36
2023/07/30 06:20:15;;;;;;;;;;;18.00;80.00;;;;;;5112141;28;20379;-33
2023/07/30 06:22:41;;;;;;;;;;;18.10;80.10;;;;;;5114657;28;19919;-36
2023/07/30 06:25:06;;;;;;;;;;;18.10;80.00;;;;;;5116000;28;19916;-33
2023/07/30 06:27:32;;;;;;;;;;;18.20;80.00;;;;;;5116051;28;20462;-34
2023/07/30 06:29:57;;;;;;;;;;;18.20;79.90;;;;;;5116060;28;19915;-34
2023/07/30 06:32:23;;;;;;;;;;;18.20;79.90;;;;;;5115867;28;19919;-34
2023/07/30 06:34:49;;;;;;;;;;;18.20;79.80;;;;;;5116216;28;19955;-35
2023/07/30 06:37:14;;;;;;;;;;;18.30;80.00;;;;;;5115851;28;19916;-34
2023/07/30 06:39:40;;;;;;;;;;;18.20;80.00;;;;;;5115846;28;19911;-34
2023/07/30 06:42:05;;;;;;;;;;;18.20;80.00;;;;;;5115670;28;19962;-33
2023/07/30 06:44:31;;;;;;;;;;;18.30;80.10;;;;;;5115984;28;20420;-36
2023/07/30 06:46:56;;;;;;;;;;;18.30;80.20;;;;;;5115720;28;19946;-33
2023/07/30 06:49:22;;;;;;;;;;;18.40;80.00;;;;;;5115726;28;20397;-36
2023/07/30 06:51:48;;;;;;;;;;;18.40;80.00;;;;;;5115594;28;19912;-34
2023/07/30 06:54:13;;;;;;;;;;;18.50;79.90;;;;;;5115629;28;19919;-34
2023/07/30 06:56:39;;;;;;;;;;;18.50;80.00;;;;;;5115806;28;19911;-34
2023/07/30 06:59:04;;;;;;;;;;;18.60;80.40;;;;;;5115591;28;19920;-34
2023/07/30 07:01:30;;;;;;;;;;;18.60;79.80;;;;;;5115725;28;20014;-35
2023/07/30 07:03:55;;;;;;;;;;;18.60;79.70;;;;;;5115248;28;19912;-35
2023/07/30 07:06:21;;;;;;;;;;;18.60;79.70;;;;;;5115316;28;19911;-34
2023/07/30 07:08:46;;;;;;;;;;;18.60;79.80;;;;;;5115422;28;19919;-35
2023/07/30 07:11:12;;;;;;;;;;;18.60;79.80;;;;;;5115233;28;19945;-34
2023/07/30 07:13:37;;;;;;;;;;;18.60;79.90;;;;;;5115137;28;19912;-34
2023/07/30 07:16:03;;;;;;;;;;;18.60;80.00;;;;;;5115124;28;19959;-34
2023/07/30 07:18:29;;;;;;;;;;;18.60;80.00;;;;;;5115429;28;19960;-34
2023/07/30 07:20:54;;;;;;;;;;;18.60;79.90;;;;;;5115072;28;19915;-38
2023/07/30 07:23:20;;;;;;;;;;;18.70;79.90;;;;;;5114891;28;19993;-37
2023/07/30 07:25:46;;;;;;;;;;;18.80;79.70;;;;;;5115013;28;19918;-33
2023/07/30 07:28:11;;;;;;;;;;;18.90;79.60;;;;;;5115053;28;19918;-34
2023/07/30 07:30:36;;;;;;;;;;;19.00;79.40;;;;;;5114852;28;20383;-34
2023/07/30 07:33:02;;;;;;;;;;;19.10;79.30;;;;;;5114836;28;19919;-35
2023/07/30 07:35:28;;;;;;;;;;;19.00;79.20;;;;;;5115092;28;20286;-35
2023/07/30 07:37:53;;;;;;;;;;;19.00;79.20;;;;;;5114553;28;19912;-34
2023/07/30 07:40:19;;;;;;;;;;;19.10;79.20;;;;;;5114933;28;19912;-35
2023/07/30 07:42:44;;;;;;;;;;;19.10;79.10;;;;;;5114861;28;19973;-36
2023/07/30 07:45:10;;;;;;;;;;;19.20;79.10;;;;;;5114761;28;19915;-34
2023/07/30 07:47:35;;;;;;;;;;;19.40;78.90;;;;;;5114434;28;19920;-34
2023/07/30 07:50:01;;;;;;;;;;;19.50;78.70;;;;;;5114297;28;19916;-36
2023/07/30 07:52:26;;;;;;;;;;;19.50;78.20;;;;;;5114533;28;19965;-33
2023/07/30 07:54:52;;;;;;;;;;;19.50;78.30;;;;;;5114274;28;19916;-35
2023/07/30 07:57:17;;;;;;;;;;;19.50;78.40;;;;;;5114053;28;20325;-34
2023/07/30 07:59:44;;;;;;;;;;;19.50;78.30;;;;;;5114354;28;19954;-41
2023/07/30 08:02:10;;;;;;;;;;;19.50;78.30;;;;;;5114307;28;19961;-34
2023/07/30 08:04:36;;;;;;;;;;;19.50;78.00;;;;;;5113834;28;20333;-35
2023/07/30 08:07:03;;;;;;;;;;;19.40;77.90;;;;;;5114073;28;19916;-35
2023/07/30 08:09:29;;;;;;;;;;;19.40;78.10;;;;;;5114292;28;19962;-34
2023/07/30 08:11:54;;;;;;;;;;;19.30;78.10;;;;;;5114079;28;19981;-35
2023/07/30 08:14:20;;;;;;;;;;;19.40;78.00;;;;;;5114108;28;19912;-36
2023/07/30 08:16:45;;;;;;;;;;;19.40;77.80;;;;;;5113754;28;20331;-34
2023/07/30 08:19:11;;;;;;;;;;;19.40;77.90;;;;;;5113967;28;19959;-35
2023/07/30 08:21:36;;;;;;;;;;;19.50;77.90;;;;;;5113637;28;19918;-35
2023/07/30 08:24:02;;;;;;;;;;;19.60;77.70;;;;;;5113670;28;19918;-35
2023/07/30 08:26:27;;;;;;;;;;;19.70;77.50;;;;;;5113785;28;19920;-34
2023/07/30 08:28:53;;;;;;;;;;;19.80;77.20;;;;;;5113627;28;19912;-35
2023/07/30 08:31:18;;;;;;;;;;;19.90;77.20;;;;;;5113566;28;20359;-35
2023/07/30 08:33:44;;;;;;;;;;;20.00;77.00;;;;;;5113663;28;19938;-34
2023/07/30 08:36:09;;;;;;;;;;;19.90;76.90;;;;;;5113613;28;20000;-35
2023/07/30 08:38:35;;;;;;;;;;;19.90;77.00;;;;;;5113488;28;19912;-35
2023/07/30 08:41:00;;;;;;;;;;;20.00;76.80;;;;;;5113423;28;20026;-36
2023/07/30 08:43:26;;;;;;;;;;;19.90;76.50;;;;;;5113306;28;19965;-33
2023/07/30 08:45:52;;;;;;;;;;;19.90;76.80;;;;;;5112642;28;19912;-37
2023/07/30 08:48:17;;;;;;;;;;;19.90;76.80;;;;;;5113223;28;19911;-34
2023/07/30 08:50:43;;;;;;;;;;;20.00;76.70;;;;;;5113242;28;20383;-34
2023/07/30 08:53:09;;;;;;;;;;;20.10;76.50;;;;;;5113166;28;19995;-33
2023/07/30 08:55:35;;;;;;;;;;;20.20;76.20;;;;;;5113340;28;19916;-38
2023/07/30 08:58:01;;;;;;;;;;;20.30;76.20;;;;;;5113192;28;19912;-34
2023/07/30 09:00:29;;;;;;;;;;;20.30;75.90;;;;;;5113295;28;19912;-33
2023/07/30 09:02:59;;;;;;;;;;;20.40;75.80;;;;;;5113050;28;19961;-34
2023/07/30 09:05:27;;;;;;;;;;;20.50;75.30;;;;;;5094659;28;20283;-34
2023/07/30 09:07:53;;;;;;;;;;;20.50;75.20;;;;;;5112957;28;19995;-35
2023/07/30 09:10:19;;;;;;;;;;;20.40;74.20;;;;;;5112872;28;20014;-33
2023/07/30 09:12:44;;;;;;;;;;;20.30;74.60;;;;;;5113029;28;19923;-34
2023/07/30 09:15:10;;;;;;;;;;;20.30;74.40;;;;;;5112893;28;19912;-34
2023/07/30 09:17:35;;;;;;;;;;;20.20;74.20;;;;;;5112896;28;19919;-35
2023/07/30 09:20:04;;;;;;;;;;;20.20;73.70;;;;;;5112883;28;19999;-35
2023/07/30 09:22:33;;;;;;;;;;;20.20;74.20;;;;;;5112747;28;19915;-35
2023/07/30 09:25:00;;;;;;;;;;;20.20;74.40;;;;;;5112863;28;19912;-33
2023/07/30 09:27:26;;;;;;;;;;;20.30;74.20;;;;;;5112833;28;19907;-34
2023/07/30 09:29:53;;;;;;;;;;;20.40;73.50;;;;;;5112756;28;20014;-36
2023/07/30 09:32:18;;;;;;;;;;;20.40;73.30;;;;;;5112717;28;20120;-35
2023/07/30 09:34:44;;;;;;;;;;;20.50;73.20;;;;;;5112913;28;19912;-35
2023/07/30 09:37:10;;;;;;;;;;;20.60;73.30;;;;;;5112543;28;20012;-36
2023/07/30 09:39:37;;;;;;;;;;;20.60;72.40;;;;;;5112715;28;19953;-35
2023/07/30 09:42:02;;;;;;;;;;;20.70;71.90;;;;;;5112823;28;19911;-37
2023/07/30 09:44:28;;;;;;;;;;;20.70;72.50;;;;;;5112512;28;19915;-34
2023/07/30 09:46:53;;;;;;;;;;;20.70;72.70;;;;;;5112667;28;19908;-43
2023/07/30 09:49:19;;;;;;;;;;;20.80;72.60;;;;;;5112800;28;19940;-33
2023/07/30 09:51:45;;;;;;;;;;;21.00;72.20;;;;;;5112350;28;19912;-34
2023/07/30 09:54:11;;;;;;;;;;;21.10;72.10;;;;;;5112617;28;19908;-36
2023/07/30 09:56:37;;;;;;;;;;;21.20;72.10;;;;;;5112940;28;19908;-35
2023/07/30 09:59:04;;;;;;;;;;;21.30;71.90;;;;;;5116444;28;19950;-37
2023/07/30 10:01:30;;;;;;;;;;;21.30;71.20;;;;;;5116575;28;19915;-34
2023/07/30 10:03:56;;;;;;;;;;;21.40;70.60;;;;;;5116337;28;19908;-38
2023/07/30 10:06:23;;;;;;;;;;;21.30;70.50;;;;;;5116714;28;19911;-35
2023/07/30 10:08:50;;;;;;;;;;;21.30;69.40;;;;;;5116331;28;20390;-35
2023/07/30 10:11:16;;;;;;;;;;;21.10;70.00;;;;;;5116214;28;20394;-34
2023/07/30 10:13:42;;;;;;;;;;;21.00;70.20;;;;;;5116467;28;19908;-40
2023/07/30 10:16:11;;;;;;;;;;;20.90;70.20;;;;;;5116191;28;19999;-34
2023/07/30 10:18:40;;;;;;;;;;;20.80;70.70;;;;;;5115977;28;19908;-34
2023/07/30 10:21:09;;;;;;;;;;;20.70;71.00;;;;;;5116281;28;19908;-33
2023/07/30 10:23:35;;;;;;;;;;;20.60;70.80;;;;;;5097774;28;19912;-33
2023/07/30 10:26:11;;;;;;;;;;;20.40;71.20;;;;;;5116096;28;20283;-34
2023/07/30 10:28:38;;;;;;;;;;;20.30;71.60;;;;;;5116002;28;19951;-34
2023/07/30 10:31:08;;;;;;;;;;;20.20;72.10;;;;;;5116050;28;19996;-36
2023/07/30 10:33:45;;;;;;;;;;;20.20;71.80;;;;;;5116181;28;19908;-35
2023/07/30 10:36:11;;;;;;;;;;;20.30;71.90;;;;;;5097531;28;19908;-33
2023/07/30 10:38:36;;;;;;;;;;;20.50;71.00;;;;;;5115799;28;19908;-34
2023/07/30 10:41:03;;;;;;;;;;;20.60;69.80;;;;;;5115864;28;19908;-34
2023/07/30 10:43:30;;;;;;;;;;;20.70;70.00;;;;;;5115768;28;19908;-35
2023/07/30 10:45:55;;;;;;;;;;;20.90;70.00;;;;;;5115824;28;20345;-34
2023/07/30 10:48:29;;;;;;;;;;;21.00;70.00;;;;;;5115734;28;19912;-33
2023/07/30 10:50:55;;;;;;;;;;;21.10;69.90;;;;;;5115632;28;19955;-35
2023/07/30 10:53:20;;;;;;;;;;;21.20;69.60;;;;;;5115607;28;19973;-37
2023/07/30 10:55:46;;;;;;;;;;;21.30;69.70;;;;;;5115560;28;19934;-37
2023/07/30 10:58:11;;;;;;;;;;;21.40;69.50;;;;;;5115584;28;19915;-35
2023/07/30 11:00:37;;;;;;;;;;;21.40;69.00;;;;;;5115479;28;19908;-35
2023/07/30 11:03:03;;;;;;;;;;;21.50;69.10;;;;;;5115272;28;19915;-35
2023/07/30 11:05:29;;;;;;;;;;;21.60;69.20;;;;;;5115264;28;19915;-34
2023/07/30 11:07:56;;;;;;;;;;;21.60;68.80;;;;;;5114777;28;19947;-35
2023/07/30 11:10:21;;;;;;;;;;;21.60;69.00;;;;;;5115361;28;19915;-34
2023/07/30 11:12:49;;;;;;;;;;;21.60;68.80;;;;;;5115362;28;20041;-34
2023/07/30 11:15:14;;;;;;;;;;;21.60;68.70;;;;;;5115174;28;19912;-35
2023/07/30 11:17:40;;;;;;;;;;;21.60;68.70;;;;;;5115067;28;19908;-33
2023/07/30 11:20:07;;;;;;;;;;;21.70;68.70;;;;;;5115849;28;19907;-35
2023/07/30 11:22:33;;;;;;;;;;;21.70;68.50;;;;;;5096810;28;20376;-35
2023/07/30 11:24:58;;;;;;;;;;;21.70;68.60;;;;;;5114907;28;19950;-33
2023/07/30 11:27:24;;;;;;;;;;;21.60;67.80;;;;;;5114890;28;19951;-35
2023/07/30 11:29:56;;;;;;;;;;;21.60;68.10;;;;;;5114851;28;19919;-32
2023/07/30 11:32:25;;;;;;;;;;;21.70;68.10;;;;;;5115081;28;19908;-34
2023/07/30 11:34:51;;;;;;;;;;;21.70;68.30;;;;;;5114837;28;19995;-36
2023/07/30 11:37:16;;;;;;;;;;;21.70;68.60;;;;;;5114806;28;19958;-33
2023/07/30 11:39:42;;;;;;;;;;;21.80;68.60;;;;;;5096442;28;20322;-36
2023/07/30 11:42:07;;;;;;;;;;;22.00;68.30;;;;;;5114574;28;20432;-33
2023/07/30 11:44:40;;;;;;;;;;;22.30;67.80;;;;;;5114526;28;19936;-34
2023/07/30 11:47:06;;;;;;;;;;;22.40;67.60;;;;;;5114418;28;20002;-37
2023/07/30 11:49:31;;;;;;;;;;;22.50;66.40;;;;;;5114308;28;19907;-34
2023/07/30 11:52:09;;;;;;;;;;;22.60;65.00;;;;;;5114447;28;19914;-37
2023/07/30 11:54:35;;;;;;;;;;;22.50;64.50;;;;;;5114329;28;19911;-35
2023/07/30 11:57:00;;;;;;;;;;;22.40;62.00;;;;;;5095939;28;20277;-35
2023/07/30 11:59:26;;;;;;;;;;;22.30;63.60;;;;;;5114265;28;19908;-35
2023/07/30 12:01:52;;;;;;;;;;;22.20;63.00;;;;;;5114204;28;20434;-34
2023/07/30 12:04:17;;;;;;;;;;;22.10;63.30;;;;;;5114058;28;19915;-34
2023/07/30 12:06:44;;;;;;;;;;;22.10;64.10;;;;;;5095781;28;19999;-35
2023/07/30 12:09:17;;;;;;;;;;;22.10;63.70;;;;;;5114058;28;19908;-34
2023/07/30 12:11:56;;;;;;;;;;;22.10;64.30;;;;;;5113825;28;19919;-40
2023/07/30 12:14:25;;;;;;;;;;;22.10;64.70;;;;;;5113956;28;20390;-38
2023/07/30 12:16:51;;;;;;;;;;;22.10;64.60;;;;;;5113991;28;19908;-35
2023/07/30 12:19:16;;;;;;;;;;;22.20;64.60;;;;;;5112979;28;20306;-35
2023/07/30 12:21:42;;;;;;;;;;;22.30;64.60;;;;;;5113753;28;20285;-34
2023/07/30 12:24:07;;;;;;;;;;;22.40;63.90;;;;;;5113849;28;19908;-35
2023/07/30 12:26:32;;;;;;;;;;;22.50;64.40;;;;;;5113637;28;19908;-34
2023/07/30 12:28:58;;;;;;;;;;;22.50;63.20;;;;;;5113814;28;19915;-34
2023/07/30 12:31:23;;;;;;;;;;;22.60;63.50;;;;;;5113491;28;20289;-41
2023/07/30 12:33:49;;;;;;;;;;;22.50;63.40;;;;;;5113641;28;19908;-34
2023/07/30 12:36:14;;;;;;;;;;;22.50;63.70;;;;;;5113588;28;20283;-36
2023/07/30 12:38:40;;;;;;;;;;;22.50;64.10;;;;;;5113576;28;20005;-35
2023/07/30 12:41:05;;;;;;;;;;;22.60;64.00;;;;;;5113402;28;19908;-35
2023/07/30 12:43:31;;;;;;;;;;;22.70;63.30;;;;;;5113527;28;19908;-33
2023/07/30 12:45:56;;;;;;;;;;;22.70;63.30;;;;;;5113750;28;19915;-34
2023/07/30 12:48:22;;;;;;;;;;;22.70;62.70;;;;;;5113257;28;19907;-33
2023/07/30 12:50:47;;;;;;;;;;;22.70;62.50;;;;;;5113222;28;19919;-35
2023/07/30 12:53:13;;;;;;;;;;;22.70;62.00;;;;;;5113231;28;19931;-34
2023/07/30 12:55:39;;;;;;;;;;;22.70;61.90;;;;;;5113248;28;19914;-35
2023/07/30 12:58:04;;;;;;;;;;;22.90;61.80;;;;;;5113416;28;19911;-35
2023/07/30 13:00:30;;;;;;;;;;;23.10;61.30;;;;;;5113161;28;20388;-34
2023/07/30 13:02:56;;;;;;;;;;;23.10;61.00;;;;;;5113196;28;19919;-34
2023/07/30 13:05:22;;;;;;;;;;;23.20;60.20;;;;;;5112973;28;19979;-34
2023/07/30 13:07:48;;;;;;;;;;;23.10;59.70;;;;;;5094739;28;19966;-33
2023/07/30 13:10:13;;;;;;;;;;;23.10;58.00;;;;;;5112893;28;19916;-34
2023/07/30 13:12:39;;;;;;;;;;;23.10;58.20;;;;;;5113047;28;19908;-33
2023/07/30 13:15:05;;;;;;;;;;;23.10;58.60;;;;;;5112887;28;19974;-36
2023/07/30 13:17:31;;;;;;;;;;;23.30;58.80;;;;;;5112813;28;19907;-34
2023/07/30 13:19:56;;;;;;;;;;;23.40;58.80;;;;;;5112954;28;19986;-35
2023/07/30 13:22:22;;;;;;;;;;;23.30;58.20;;;;;;5112965;28;19951;-34
2023/07/30 13:24:47;;;;;;;;;;;23.20;58.30;;;;;;5112779;28;19943;-35
2023/07/30 13:27:13;;;;;;;;;;;23.00;58.70;;;;;;5112759;28;19908;-35
2023/07/30 13:29:38;;;;;;;;;;;22.90;58.90;;;;;;5112744;28;19907;-40
2023/07/30 13:32:04;;;;;;;;;;;22.80;59.40;;;;;;5112765;28;20053;-36
2023/07/30 13:34:31;;;;;;;;;;;22.60;59.00;;;;;;5112658;28;20372;-35
2023/07/30 13:36:56;;;;;;;;;;;22.50;59.60;;;;;;5112679;28;19911;-35
2023/07/30 13:39:21;;;;;;;;;;;22.40;59.70;;;;;;5112465;28;19914;-34
2023/07/30 13:41:47;;;;;;;;;;;22.20;59.00;;;;;;5112466;28;19943;-38
2023/07/30 13:44:12;;;;;;;;;;;22.20;59.50;;;;;;5112492;28;19908;-30
2023/07/30 13:46:40;;;;;;;;;;;22.30;59.90;;;;;;5112537;28;19915;-37
2023/07/30 13:49:06;;;;;;;;;;;22.40;59.50;;;;;;5112318;28;19933;-38
2023/07/30 13:51:32;;;;;;;;;;;22.60;59.70;;;;;;5112192;28;19912;-32
2023/07/30 13:53:58;;;;;;;;;;;22.70;58.70;;;;;;5112388;28;20363;-29
2023/07/30 13:56:24;;;;;;;;;;;22.90;58.90;;;;;;5112334;28;19908;-30
2023/07/30 13:58:49;;;;;;;;;;;23.10;57.00;;;;;;5112303;28;20313;-29
2023/07/30 14:01:15;;;;;;;;;;;23.20;57.70;;;;;;5112403;28;19912;-30
2023/07/30 14:03:40;;;;;;;;;;;23.40;57.00;;;;;;5093804;28;20002;-31
2023/07/30 14:06:06;;;;;;;;;;;23.30;55.60;;;;;;5112382;28;19961;-30
2023/07/30 14:08:31;;;;;;;;;;;23.30;56.30;;;;;;5112120;28;19992;-32